Time;durP1;ratioP1;P1;durP2;ratioP2;P2;SDS_P1;SDS_P2;PMS_P1;PMS_P2;Temp;Humidity;BMP_temperature;BMP_pressure;BME280_temperature;BME280_humidity;BME280_pressure;Samples;Min_cycle;Max_cycle;Signal;HPM_P1;HPM_P2
2023/07/02 00:01:48;;;;;;;5.83;2.30;;;;;;;18.40;100.00;95803.38;4952268;28;102567;-57
2023/07/02 00:04:16;;;;;;;2.10;2.00;;;;;;;18.10;100.00;95803.44;4953026;28;102036;-57
2023/07/02 00:06:43;;;;;;;2.60;2.40;;;;;;;18.12;100.00;95798.53;4951413;28;104151;-57
2023/07/02 00:09:10;;;;;;;2.60;2.40;;;;;;;18.32;100.00;95801.44;4951048;28;105569;-57
2023/07/02 00:11:38;;;;;;;2.70;2.10;;;;;;;18.43;100.00;95796.59;4952753;28;101833;-56
2023/07/02 00:14:05;;;;;;;3.63;2.83;;;;;;;18.48;100.00;95793.75;4951417;28;105742;-56
2023/07/02 00:16:32;;;;;;;3.93;2.43;;;;;;;18.56;100.00;95795.66;4952147;28;103141;-57
2023/07/02 00:19:01;;;;;;;3.80;2.60;;;;;;;18.52;100.00;95794.72;4952890;28;102207;-58
2023/07/02 00:21:28;;;;;;;2.60;2.30;;;;;;;18.51;100.00;95787.72;4954005;28;103693;-58
2023/07/02 00:23:57;;;;;;;3.07;2.20;;;;;;;18.34;100.00;95791.19;4952790;28;101849;-58
2023/07/02 00:26:25;;;;;;;2.43;2.23;;;;;;;18.51;100.00;95793.91;4951226;28;105499;-58
2023/07/02 00:28:51;;;;;;;3.23;2.30;;;;;;;18.48;100.00;95797.22;4950619;28;103652;-58
2023/07/02 00:31:18;;;;;;;3.00;2.20;;;;;;;18.67;100.00;95797.72;4951367;28;102026;-58
2023/07/02 00:33:45;;;;;;;4.03;2.30;;;;;;;18.83;100.00;95789.97;4951085;28;105199;-57
2023/07/02 00:36:15;;;;;;;3.10;2.10;;;;;;;18.96;100.00;95791.75;4950100;28;105667;-58
2023/07/02 00:38:43;;;;;;;2.47;2.27;;;;;;;18.89;100.00;95791.41;4951852;28;101911;-58
2023/07/02 00:41:10;;;;;;;2.97;2.30;;;;;;;18.81;100.00;95792.19;4950897;28;105585;-57
2023/07/02 00:43:39;;;;;;;2.50;2.30;;;;;;;18.82;100.00;95793.78;4955104;28;102760;-57
2023/07/02 00:46:06;;;;;;;3.00;2.13;;;;;;;18.82;100.00;95796.47;4950871;28;105790;-57
2023/07/02 00:48:34;;;;;;;2.40;2.23;;;;;;;18.77;100.00;95802.00;4950203;28;105903;-57
2023/07/02 00:51:01;;;;;;;4.93;2.70;;;;;;;18.56;100.00;95801.84;4950844;28;102096;-56
2023/07/02 00:53:29;;;;;;;2.67;2.33;;;;;;;18.42;100.00;95797.69;4950885;28;105562;-55
2023/07/02 00:55:56;;;;;;;2.30;2.10;;;;;;;18.32;100.00;95797.97;4950279;28;104027;-57
2023/07/02 00:58:23;;;;;;;2.73;2.53;;;;;;;18.44;100.00;95801.66;4950173;28;102151;-57
2023/07/02 01:00:50;;;;;;;2.47;2.30;;;;;;;18.45;100.00;95803.25;4950610;28;105198;-56
2023/07/02 01:03:17;;;;;;;2.87;2.50;;;;;;;18.44;100.00;95806.25;4954997;28;102969;-57
2023/07/02 01:05:44;;;;;;;2.33;2.00;;;;;;;18.38;100.00;95804.81;4950633;28;105811;-57
2023/07/02 01:08:11;;;;;;;2.27;2.07;;;;;;;18.46;100.00;95804.03;4949953;28;104389;-57
2023/07/02 01:10:42;;;;;;;2.67;2.47;;;;;;;18.31;100.00;95804.44;4950635;28;101982;-57
2023/07/02 01:13:15;;;;;;;2.20;2.10;;;;;;;18.47;100.00;95801.03;4951719;28;104050;-57
2023/07/02 01:15:45;;;;;;;3.33;2.50;;;;;;;18.37;100.00;95797.84;4949994;28;104918;-57
2023/07/02 01:18:14;;;;;;;6.23;2.30;;;;;;;18.24;100.00;95802.19;4950387;28;102057;-57
2023/07/02 01:20:44;;;;;;;3.83;2.50;;;;;;;18.40;100.00;95806.09;4950177;28;103548;-57
2023/07/02 01:23:11;;;;;;;2.77;2.43;;;;;;;18.36;100.00;95805.13;4949583;28;106003;-57
2023/07/02 01:25:38;;;;;;;2.60;2.20;;;;;;;18.19;100.00;95806.91;4953801;28;102400;-57
2023/07/02 01:28:05;;;;;;;3.60;2.43;;;;;;;18.18;100.00;95816.09;4950951;28;102715;-57
2023/07/02 01:30:33;;;;;;;2.70;2.50;;;;;;;17.98;100.00;95816.69;4951740;28;102099;-57
2023/07/02 01:32:59;;;;;;;2.90;2.47;;;;;;;17.90;100.00;95823.59;4950200;28;105585;-57
2023/07/02 01:35:26;;;;;;;2.57;2.37;;;;;;;17.87;100.00;95828.81;4949691;28;105348;-57
2023/07/02 01:37:55;;;;;;;2.23;2.03;;;;;;;17.83;100.00;95822.47;4949895;28;101946;-58
2023/07/02 01:40:21;;;;;;;1.60;1.50;;;;;;;17.53;100.00;95825.91;4950151;28;105242;-57
2023/07/02 01:42:48;;;;;;;1.90;1.80;;;;;;;17.40;100.00;95846.41;4949222;28;105549;-57
2023/07/02 01:45:15;;;;;;;1.90;1.80;;;;;;;17.58;100.00;95847.31;4950072;28;101959;-58
2023/07/02 01:47:42;;;;;;;1.80;1.70;;;;;;;17.30;100.00;95864.63;4952701;28;105241;-58
2023/07/02 01:50:11;;;;;;;1.50;1.40;;;;;;;17.22;100.00;95870.75;4951358;28;102069;-58
2023/07/02 01:52:38;;;;;;;1.40;1.30;;;;;;;17.10;100.00;95870.47;4950159;28;104204;-57
2023/07/02 01:55:07;;;;;;;1.07;1.07;;;;;;;16.92;100.00;95890.22;4949248;28;105341;-57
2023/07/02 01:57:34;;;;;;;1.23;1.23;;;;;;;16.88;100.00;95891.91;4949662;28;102244;-58
2023/07/02 02:00:01;;;;;;;1.30;1.20;;;;;;;16.88;100.00;95902.66;4949827;28;105355;-57
2023/07/02 02:02:28;;;;;;;1.00;1.00;;;;;;;16.76;100.00;95903.19;4949114;28;106023;-57
2023/07/02 02:04:56;;;;;;;1.00;1.00;;;;;;;16.77;100.00;95901.28;4949762;28;101859;-57
2023/07/02 02:07:23;;;;;;;1.10;1.10;;;;;;;16.80;100.00;95898.81;4949556;28;105545;-57
2023/07/02 02:09:49;;;;;;;1.30;1.20;;;;;;;16.93;100.00;95891.81;4951395;28;105671;-57
2023/07/02 02:12:18;;;;;;;1.80;1.40;;;;;;;17.02;100.00;95879.25;4949788;28;105621;-58
2023/07/02 02:14:45;;;;;;;1.00;1.00;;;;;;;17.11;100.00;95886.28;4949065;28;104166;-57
2023/07/02 02:17:12;;;;;;;1.40;1.30;;;;;;;17.32;100.00;95876.66;4949651;28;102139;-57
2023/07/02 02:19:39;;;;;;;1.37;1.23;;;;;;;17.38;100.00;95875.47;4949477;28;105926;-57
2023/07/02 02:22:06;;;;;;;1.00;1.00;;;;;;;17.47;100.00;95875.53;4950110;28;102647;-57
2023/07/02 02:24:34;;;;;;;1.43;1.10;;;;;;;17.39;100.00;95862.84;4949293;28;102007;-57
2023/07/02 02:27:01;;;;;;;1.40;1.30;;;;;;;17.41;100.00;95858.75;4949413;28;105210;-57
2023/07/02 02:29:30;;;;;;;0.80;0.80;;;;;;;17.39;100.00;95868.22;4948759;28;105386;-57
2023/07/02 02:31:56;;;;;;;0.90;0.90;;;;;;;17.28;100.00;95856.88;4952723;28;101915;-57
2023/07/02 02:34:24;;;;;;;4.80;2.20;;;;;;;17.72;100.00;95861.47;4948650;28;105628;-57
2023/07/02 02:36:50;;;;;;;2.03;1.30;;;;;;;17.68;100.00;95855.94;4948928;28;103768;-57
2023/07/02 02:39:17;;;;;;;1.30;1.30;;;;;;;17.77;100.00;95858.66;4948794;28;105209;-57
2023/07/02 02:41:44;;;;;;;3.27;1.67;;;;;;;17.95;100.00;95855.75;4948510;28;105303;-57
2023/07/02 02:44:15;;;;;;;1.60;1.50;;;;;;;18.08;100.00;95859.44;4949100;28;102015;-57
2023/07/02 02:46:43;;;;;;;1.10;1.00;;;;;;;17.97;100.00;95855.44;4949311;28;104289;-57
2023/07/02 02:49:10;;;;;;;1.60;1.20;;;;;;;17.95;100.00;95849.56;4948544;28;106054;-57
2023/07/02 02:51:37;;;;;;;1.03;1.00;;;;;;;17.88;100.00;95860.00;4949040;28;101870;-56
2023/07/02 02:54:04;;;;;;;1.63;1.10;;;;;;;17.52;100.00;95860.09;4951674;28;105672;-57
2023/07/02 02:56:30;;;;;;;1.20;1.20;;;;;;;17.45;100.00;95867.00;4948994;28;102189;-57
2023/07/02 02:58:58;;;;;;;1.37;1.27;;;;;;;17.57;100.00;95862.66;4948900;28;105251;-56
2023/07/02 03:01:28;;;;;;;3.57;1.50;;;;;;;17.61;100.00;95868.22;4948295;28;105496;-57
2023/07/02 03:03:59;;;;;;;1.30;1.30;;;;;;;17.77;100.00;95850.59;4949011;28;101901;-56
2023/07/02 03:06:26;;;;;;;2.00;1.27;;;;;;;17.71;100.00;95854.50;4948844;28;104457;-57
2023/07/02 03:08:53;;;;;;;3.23;1.30;;;;;;;17.86;100.00;95857.59;4949482;28;102562;-57
2023/07/02 03:11:20;;;;;;;2.00;1.33;;;;;;;17.99;100.00;95861.31;4950324;28;101848;-56
2023/07/02 03:13:47;;;;;;;1.43;1.33;;;;;;;17.87;100.00;95856.50;4953037;28;102411;-56
2023/07/02 03:16:14;;;;;;;2.57;1.30;;;;;;;17.95;100.00;95854.94;4948820;28;102031;-57
2023/07/02 03:18:40;;;;;;;1.73;1.30;;;;;;;17.93;100.00;95855.25;4950269;28;102365;-57
2023/07/02 03:21:09;;;;;;;1.83;1.50;;;;;;;17.99;100.00;95848.63;4950012;28;102867;-57
2023/07/02 03:23:36;;;;;;;2.47;1.73;;;;;;;17.90;100.00;95858.59;4953273;28;101844;-57
2023/07/02 03:26:03;;;;;;;5.03;2.20;;;;;;;17.85;100.00;95855.22;4953478;28;102874;-55
2023/07/02 03:28:31;;;;;;;2.63;1.47;;;;;;;17.94;100.00;95859.53;4952814;28;102524;-55
2023/07/02 03:30:58;;;;;;;1.10;1.10;;;;;;;17.80;100.00;95863.41;4952117;28;102140;-57
2023/07/02 03:33:24;;;;;;;1.87;1.60;;;;;;;17.44;100.00;95862.72;4952195;28;105504;-58
2023/07/02 03:35:51;;;;;;;2.00;1.30;;;;;;;17.34;100.00;95873.69;4956121;28;102711;-58
2023/07/02 03:38:20;;;;;;;1.50;1.30;;;;;;;17.48;100.00;95869.06;4952910;28;102886;-57
2023/07/02 03:40:47;;;;;;;1.50;1.40;;;;;;;17.62;100.00;95885.94;4951451;28;103803;-58
2023/07/02 03:43:14;;;;;;;2.70;2.17;;;;;;;17.68;100.00;95887.38;4951689;28;102021;-58
2023/07/02 03:45:41;;;;;;;3.40;2.00;;;;;;;17.60;100.00;95891.59;4951946;28;104910;-58
2023/07/02 03:48:08;;;;;;;1.70;1.60;;;;;;;17.64;100.00;95891.78;4951222;28;105066;-59
2023/07/02 03:50:34;;;;;;;3.97;2.10;;;;;;;17.51;100.00;95890.78;4951864;28;102027;-59
2023/07/02 03:53:02;;;;;;;2.20;2.10;;;;;;;17.32;100.00;95892.78;4951521;28;105351;-59
2023/07/02 03:55:30;;;;;;;2.07;1.97;;;;;;;17.19;100.00;95890.94;4950976;28;105643;-59
2023/07/02 03:57:57;;;;;;;2.10;1.90;;;;;;;17.45;100.00;95900.03;4955161;28;102079;-60
2023/07/02 04:00:24;;;;;;;2.40;2.20;;;;;;;17.31;100.00;95887.72;4951014;28;105152;-60
2023/07/02 04:02:52;;;;;;;2.83;2.57;;;;;;;17.32;100.00;95894.66;4951474;28;101959;-60
2023/07/02 04:05:19;;;;;;;3.83;2.90;;;;;;;17.54;100.00;95906.28;4967710;28;105438;-60
2023/07/02 04:07:46;;;;;;;4.17;3.23;;;;;;;17.28;100.00;95897.19;4950816;28;105422;-59
2023/07/02 04:10:13;;;;;;;4.50;3.40;;;;;;;17.19;100.00;95906.28;4951459;28;101984;-59
2023/07/02 04:12:41;;;;;;;5.17;3.57;;;;;;;17.18;100.00;95910.06;4951544;28;105171;-59
2023/07/02 04:15:10;;;;;;;3.23;2.80;;;;;;;17.10;100.00;95908.06;4950758;28;105678;-57
2023/07/02 04:17:36;;;;;;;4.43;3.20;;;;;;;17.09;100.00;95906.50;4951405;28;102157;-59
2023/07/02 04:20:04;;;;;;;3.67;3.00;;;;;;;17.17;100.00;95914.63;4954293;28;104866;-59
2023/07/02 04:22:31;;;;;;;3.07;2.87;;;;;;;17.24;100.00;95923.09;4951231;28;102285;-60
2023/07/02 04:24:58;;;;;;;2.57;2.40;;;;;;;17.19;100.00;95917.03;4967637;28;104889;-59
2023/07/02 04:27:25;;;;;;;2.47;2.30;;;;;;;17.12;100.00;95920.13;4950576;28;105841;-59
2023/07/02 04:29:55;;;;;;;2.30;2.17;;;;;;;17.14;100.00;95936.75;4951244;28;101926;-59
2023/07/02 04:32:22;;;;;;;2.13;2.03;;;;;;;17.13;100.00;95950.47;4950955;28;105126;-59
2023/07/02 04:34:49;;;;;;;2.30;2.10;;;;;;;17.16;100.00;95952.56;4950022;28;104084;-60
2023/07/02 04:37:16;;;;;;;2.50;2.30;;;;;;;17.36;100.00;95954.78;4951007;28;102314;-60
2023/07/02 04:39:43;;;;;;;2.20;2.00;;;;;;;17.35;100.00;95958.59;4950668;28;103988;-60
2023/07/02 04:42:14;;;;;;;5.80;2.20;;;;;;;17.59;100.00;95967.19;4953680;28;105813;-60
2023/07/02 04:44:43;;;;;;;2.10;1.87;;;;;;;17.33;100.00;95966.94;4951239;28;105499;-59
2023/07/02 04:47:11;;;;;;;2.43;2.23;;;;;;;17.21;100.00;95980.13;4951775;28;103056;-60
2023/07/02 04:49:38;;;;;;;2.33;2.20;;;;;;;17.11;100.00;95974.19;4950820;28;101971;-60
2023/07/02 04:52:05;;;;;;;2.17;2.00;;;;;;;17.12;100.00;95981.91;4950872;28;105207;-60
2023/07/02 04:54:32;;;;;;;2.70;2.20;;;;;;;17.03;100.00;96004.41;4950222;28;105734;-59
2023/07/02 04:56:59;;;;;;;2.60;2.40;;;;;;;16.57;100.00;96001.81;4950748;28;102283;-60
2023/07/02 04:59:26;;;;;;;6.03;2.40;;;;;;;16.10;100.00;96009.34;4950848;28;105274;-60
2023/07/02 05:01:53;;;;;;;4.07;2.77;;;;;;;15.90;100.00;96007.00;4950079;28;103768;-60
2023/07/02 05:04:22;;;;;;;2.90;2.67;;;;;;;15.80;100.00;96001.81;4953931;28;101841;-58
2023/07/02 05:06:49;;;;;;;3.73;2.33;;;;;;;15.51;100.00;96003.84;4951253;28;103378;-60
2023/07/02 05:09:15;;;;;;;4.00;2.70;;;;;;;15.57;100.00;96011.53;4950530;28;101922;-60
2023/07/02 05:11:42;;;;;;;2.43;2.10;;;;;;;15.40;100.00;96003.19;4950563;28;105835;-60
2023/07/02 05:14:09;;;;;;;4.60;2.43;;;;;;;15.49;100.00;96006.03;4949825;28;105956;-61
2023/07/02 05:16:36;;;;;;;4.10;2.20;;;;;;;15.46;100.00;96004.72;4950460;28;101935;-58
2023/07/02 05:19:03;;;;;;;3.00;2.13;;;;;;;15.40;100.00;96003.19;4950577;28;104932;-59
2023/07/02 05:21:31;;;;;;;3.90;2.20;;;;;;;15.40;100.00;96013.91;4965890;28;105632;-60
2023/07/02 05:23:58;;;;;;;4.17;2.83;;;;;;;15.61;100.00;96014.41;4953681;28;101965;-60
2023/07/02 05:26:26;;;;;;;3.23;2.80;;;;;;;15.71;100.00;96009.72;4949656;28;105332;-60
2023/07/02 05:28:53;;;;;;;7.27;2.97;;;;;;;16.02;100.00;96020.75;4951155;28;101960;-58
2023/07/02 05:31:20;;;;;;;4.60;2.60;;;;;;;15.85;100.00;96015.91;4951097;28;105342;-63
2023/07/02 05:33:47;;;;;;;3.90;2.20;;;;;;;15.48;100.00;96018.63;4951902;28;103179;-60
2023/07/02 05:36:14;;;;;;;2.27;2.07;;;;;;;15.29;100.00;96023.16;4950926;28;101990;-62
2023/07/02 05:38:43;;;;;;;3.00;2.40;;;;;;;15.56;100.00;96027.88;4950527;28;105580;-63
2023/07/02 05:41:10;;;;;;;4.20;2.60;;;;;;;15.53;100.00;96023.13;4950237;28;105565;-60
2023/07/02 05:43:37;;;;;;;3.00;2.60;;;;;;;15.51;100.00;96026.09;4950746;28;103496;-59
2023/07/02 05:46:04;;;;;;;5.43;2.63;;;;;;;15.82;100.00;96031.81;4953598;28;105720;-58
2023/07/02 05:48:31;;;;;;;2.70;2.37;;;;;;;15.43;100.00;96018.69;4950613;28;101977;-59
2023/07/02 05:50:57;;;;;;;3.70;2.53;;;;;;;15.86;100.00;96033.59;4950643;28;105156;-60
2023/07/02 05:53:24;;;;;;;3.23;2.23;;;;;;;15.57;100.00;96024.13;4951404;28;102870;-59
2023/07/02 05:55:53;;;;;;;3.77;2.53;;;;;;;15.76;100.00;96019.56;4950696;28;101907;-58
2023/07/02 05:58:20;;;;;;;2.60;2.33;;;;;;;15.77;100.00;96026.50;4950531;28;105683;-60
2023/07/02 06:00:49;;;;;;;2.60;2.40;;;;;;;16.22;100.00;96031.13;4949960;28;105190;-59
2023/07/02 06:03:19;;;;;;;3.00;2.67;;;;;;;16.01;100.00;96024.50;4950374;28;101912;-60
2023/07/02 06:05:48;;;;;;;2.53;2.33;;;;;;;16.13;100.00;96035.59;4950589;28;105035;-60
2023/07/02 06:08:15;;;;;;;3.03;2.60;;;;;;;16.28;100.00;96043.38;4954397;28;102547;-60
2023/07/02 06:10:42;;;;;;;2.50;2.30;;;;;;;16.74;100.00;96047.69;4951851;28;102916;-60
2023/07/02 06:13:11;;;;;;;2.90;2.27;;;;;;;16.81;100.00;96053.47;4951201;28;102655;-60
2023/07/02 06:15:38;;;;;;;2.97;2.67;;;;;;;16.63;100.00;96062.38;4950225;28;102146;-60
2023/07/02 06:18:05;;;;;;;2.50;2.30;;;;;;;16.47;100.00;96057.59;4950175;28;105595;-60
2023/07/02 06:20:31;;;;;;;2.30;2.10;;;;;;;16.53;100.00;96064.47;4949660;28;105374;-60
2023/07/02 06:22:58;;;;;;;3.13;2.73;;;;;;;16.57;100.00;96066.25;4950191;28;101893;-60
2023/07/02 06:25:26;;;;;;;2.77;2.50;;;;;;;16.66;100.00;96061.00;4951722;28;102340;-60
2023/07/02 06:27:54;;;;;;;5.40;2.70;;;;;;;16.59;100.00;96063.28;4949708;28;105264;-60
2023/07/02 06:30:23;;;;;;;5.90;5.30;;;;;;;16.58;100.00;96061.69;4954790;28;101792;-60
2023/07/02 06:32:50;;;;;;;3.77;2.77;;;;;;;16.41;100.00;96069.50;4950649;28;103245;-60
2023/07/02 06:35:17;;;;;;;4.20;2.50;;;;;;;16.44;100.00;96066.22;4951476;28;101825;-60
2023/07/02 06:37:44;;;;;;;5.13;2.67;;;;;;;16.65;100.00;96062.91;4949794;28;105210;-60
2023/07/02 06:40:11;;;;;;;2.73;2.53;;;;;;;16.23;100.00;96051.50;4949284;28;105830;-60
2023/07/02 06:42:38;;;;;;;3.17;2.90;;;;;;;16.21;100.00;96061.75;4949784;28;101919;-60
2023/07/02 06:45:07;;;;;;;2.53;2.33;;;;;;;15.65;100.00;96058.34;4951311;28;102549;-60
2023/07/02 06:47:35;;;;;;;2.93;2.63;;;;;;;16.21;100.00;96053.69;4950461;28;103014;-60
2023/07/02 06:50:02;;;;;;;4.83;3.00;;;;;;;16.38;100.00;96056.63;4949887;28;102147;-60
2023/07/02 06:52:29;;;;;;;3.53;3.00;;;;;;;16.68;100.00;96056.13;4954038;28;102556;-60
2023/07/02 06:54:56;;;;;;;2.70;2.50;;;;;;;16.08;100.00;96052.56;4951103;28;102226;-60
2023/07/02 06:57:23;;;;;;;3.27;2.93;;;;;;;16.20;100.00;96052.91;4950669;28;102365;-60
2023/07/02 06:59:51;;;;;;;5.97;4.17;;;;;;;16.40;100.00;96051.81;4950376;28;102644;-60
2023/07/02 07:02:17;;;;;;;3.80;3.13;;;;;;;16.77;100.00;96062.41;4951018;28;101842;-60
2023/07/02 07:04:46;;;;;;;3.70;3.10;;;;;;;17.10;100.00;96048.59;4950865;28;102977;-60
2023/07/02 07:07:13;;;;;;;3.83;3.00;;;;;;;17.22;100.00;96050.78;4950363;28;103067;-60
2023/07/02 07:09:40;;;;;;;4.37;2.83;;;;;;;17.35;100.00;96044.59;4949451;28;101872;-60
2023/07/02 07:12:07;;;;;;;8.00;5.30;;;;;;;17.64;100.00;96040.50;4949596;28;105105;-60
2023/07/02 07:14:34;;;;;;;6.20;5.10;;;;;;;17.48;100.00;96041.91;4951961;28;101945;-60
2023/07/02 07:17:01;;;;;;;5.30;4.30;;;;;;;17.34;100.00;96043.78;4949703;28;103644;-58
2023/07/02 07:19:29;;;;;;;5.40;4.40;;;;;;;17.18;100.00;96044.41;4948915;28;105735;-57
2023/07/02 07:21:57;;;;;;;2.50;2.30;;;;;;;16.16;100.00;96053.78;4950825;28;101731;-57
2023/07/02 07:24:24;;;;;;;3.00;2.70;;;;;;;16.04;100.00;96059.63;4949439;28;105287;-57
2023/07/02 07:26:51;;;;;;;4.00;3.60;;;;;;;16.71;100.00;96053.66;4948983;28;105337;-58
2023/07/02 07:29:18;;;;;;;6.10;3.30;;;;;;;16.41;100.00;96048.03;4950892;28;101857;-58
2023/07/02 07:31:45;;;;;;;4.20;3.70;;;;;;;17.02;100.00;96037.75;4950810;28;102953;-57
2023/07/02 07:34:12;;;;;;;3.83;3.00;;;;;;;17.37;100.00;96034.31;4952165;28;105369;-57
2023/07/02 07:36:39;;;;;;;5.17;3.07;;;;;;;17.22;100.00;96045.41;4950533;28;102508;-58
2023/07/02 07:39:07;;;;;;;3.57;3.07;;;;;;;16.91;100.00;96039.03;4949717;28;102713;-58
2023/07/02 07:41:34;;;;;;;3.73;3.10;;;;;;;17.34;100.00;96035.72;4949283;28;101974;-58
2023/07/02 07:44:01;;;;;;;3.63;2.90;;;;;;;17.54;100.00;96026.47;4950486;28;102913;-58
2023/07/02 07:46:28;;;;;;;3.13;2.83;;;;;;;17.70;100.00;96019.63;4949997;28;102504;-58
2023/07/02 07:48:55;;;;;;;3.80;2.87;;;;;;;17.60;100.00;96025.28;4949145;28;101946;-58
2023/07/02 07:51:22;;;;;;;3.07;2.77;;;;;;;17.51;100.00;96019.00;4949066;28;105451;-58
2023/07/02 07:53:49;;;;;;;3.37;2.67;;;;;;;17.24;100.00;96013.66;4948066;28;105567;-58
2023/07/02 07:56:18;;;;;;;2.80;2.47;;;;;;;17.41;100.00;96013.84;4951223;28;101957;-59
2023/07/02 07:58:45;;;;;;;4.57;2.80;;;;;;;18.04;100.00;96009.16;4947093;28;105550;-59
2023/07/02 08:01:12;;;;;;;3.37;3.07;;;;;;;18.17;100.00;96014.50;4948373;28;101953;-59
2023/07/02 08:03:39;;;;;;;2.77;2.53;;;;;;;18.50;100.00;96009.63;4947649;28;105995;-59
2023/07/02 08:06:06;;;;;;;3.93;2.57;;;;;;;18.05;100.00;96005.38;4947220;28;104702;-59
2023/07/02 08:08:33;;;;;;;3.10;2.57;;;;;;;18.02;100.00;96011.34;4950731;28;102039;-59
2023/07/02 08:11:00;;;;;;;4.83;2.50;;;;;;;18.42;100.00;96007.69;4952825;28;102658;-59
2023/07/02 08:13:28;;;;;;;3.30;2.60;;;;;;;18.73;100.00;95997.69;4950829;28;105808;-58
2023/07/02 08:15:55;;;;;;;3.67;2.57;;;;;;;18.84;100.00;96007.91;4951409;28;102056;-59
2023/07/02 08:18:22;;;;;;;3.53;2.80;;;;;;;19.00;100.00;96000.97;4955588;28;102783;-59
2023/07/02 08:20:49;;;;;;;4.70;2.70;;;;;;;19.01;100.00;96002.56;4951377;28;101950;-59
2023/07/02 08:23:16;;;;;;;5.73;2.83;;;;;;;18.85;100.00;95995.22;4951199;28;105717;-59
2023/07/02 08:25:42;;;;;;;2.63;2.03;;;;;;;18.83;100.00;96000.13;4950608;28;105529;-59
2023/07/02 08:28:09;;;;;;;4.80;2.23;;;;;;;18.91;100.00;96000.16;4951215;28;102100;-59
2023/07/02 08:30:38;;;;;;;6.87;3.00;;;;;;;19.27;100.00;95994.56;4951220;28;105217;-59
2023/07/02 08:33:05;;;;;;;3.17;2.40;;;;;;;19.37;100.00;96005.06;4951914;28;103179;-59
2023/07/02 08:35:31;;;;;;;2.20;2.00;;;;;;;19.54;100.00;96002.38;4951142;28;101946;-59
2023/07/02 08:37:58;;;;;;;2.30;2.10;;;;;;;19.44;100.00;96002.69;4950484;28;105582;-60
2023/07/02 08:40:25;;;;;;;1.93;1.83;;;;;;;18.75;100.00;95995.50;4955170;28;102569;-60
2023/07/02 08:42:52;;;;;;;2.10;2.00;;;;;;;18.51;100.00;96011.22;4950959;28;105570;-60
2023/07/02 08:45:21;;;;;;;2.50;2.30;;;;;;;18.33;100.00;96012.22;4951624;28;102049;-59
2023/07/02 08:47:50;;;;;;;2.67;2.47;;;;;;;18.36;100.00;96017.78;4950802;28;101909;-60
2023/07/02 08:50:17;;;;;;;2.97;2.73;;;;;;;17.33;100.00;96087.91;4950946;28;105307;-59
2023/07/02 08:52:45;;;;;;;3.53;3.23;;;;;;;16.46;100.00;96105.09;4950231;28;106090;-59
2023/07/02 08:55:12;;;;;;;3.60;2.70;;;;;;;15.98;100.00;96095.63;4950795;28;102068;-59
2023/07/02 08:57:39;;;;;;;2.87;2.67;;;;;;;15.83;100.00;96108.47;4952103;28;102988;-59
2023/07/02 09:00:10;;;;;;;3.10;2.80;;;;;;;15.52;100.00;96118.00;4949967;28;105798;-60
2023/07/02 09:02:37;;;;;;;3.10;2.80;;;;;;;15.58;100.00;96122.22;4955663;28;102121;-59
2023/07/02 09:05:06;;;;;;;3.23;3.03;;;;;;;15.43;100.00;96127.78;4951461;28;102344;-59
2023/07/02 09:07:44;;;;;;;3.70;3.27;;;;;;;15.29;100.00;96138.34;4950595;28;101992;-59
2023/07/02 09:10:10;;;;;;;3.50;3.20;;;;;;;15.27;100.00;96145.06;4952210;28;102308;-59
2023/07/02 09:12:38;;;;;;;3.60;3.30;;;;;;;15.37;100.00;96153.03;4949818;28;105492;-59
2023/07/02 09:15:07;;;;;;;3.63;3.33;;;;;;;15.20;100.00;96155.34;4951854;28;101863;-59
2023/07/02 09:17:35;;;;;;;3.90;3.60;;;;;;;15.27;100.00;96155.78;4951807;28;102558;-59
2023/07/02 09:20:06;;;;;;;4.00;3.70;;;;;;;15.44;100.00;96158.84;4949551;28;105636;-60
2023/07/02 09:22:35;;;;;;;3.83;3.40;;;;;;;15.66;100.00;96156.41;4953895;28;102118;-60
2023/07/02 09:25:03;;;;;;;4.53;3.80;;;;;;;15.73;100.00;96146.94;4950932;28;103245;-59
2023/07/02 09:27:38;;;;;;;4.07;3.73;;;;;;;15.83;100.00;96146.00;4951821;28;102009;-60
2023/07/02 09:30:10;;;;;;;3.50;3.20;;;;;;;15.85;100.00;96146.50;4951674;28;102704;-60
2023/07/02 09:32:37;;;;;;;4.03;3.33;;;;;;;15.84;100.00;96142.22;4950879;28;103139;-59
2023/07/02 09:35:04;;;;;;;3.67;3.37;;;;;;;15.92;100.00;96145.06;4951745;28;102329;-59
2023/07/02 09:37:32;;;;;;;3.07;2.77;;;;;;;15.98;100.00;96146.59;4951603;28;102508;-59
2023/07/02 09:40:01;;;;;;;3.30;3.07;;;;;;;15.85;100.00;96143.81;4949211;28;105529;-59
2023/07/02 09:42:30;;;;;;;3.50;3.20;;;;;;;16.01;100.00;96140.66;4951722;28;101730;-59
2023/07/02 09:44:59;;;;;;;3.43;3.20;;;;;;;16.35;100.00;96146.56;4952856;28;105407;-59
2023/07/02 09:47:28;;;;;;;4.27;3.40;;;;;;;16.36;100.00;96150.06;4951321;28;101952;-59
2023/07/02 09:49:59;;;;;;;3.67;3.37;;;;;;;16.25;100.00;96149.41;4951307;28;102903;-60
2023/07/02 09:52:27;;;;;;;3.40;3.07;;;;;;;16.43;100.00;96155.88;4949294;28;103780;-60
2023/07/02 09:54:54;;;;;;;4.40;3.30;;;;;;;16.48;100.00;96151.25;4949778;28;102420;-59
2023/07/02 09:57:22;;;;;;;3.40;3.10;;;;;;;16.54;100.00;96155.44;4949775;28;105215;-60
2023/07/02 09:59:50;;;;;;;4.13;3.23;;;;;;;16.83;100.00;96144.47;4949233;28;105564;-60
2023/07/02 10:02:17;;;;;;;2.80;2.60;;;;;;;16.98;100.00;96144.19;4951309;28;101902;-60
2023/07/02 10:04:46;;;;;;;3.33;2.63;;;;;;;17.17;100.00;96139.56;4951078;28;102902;-60
2023/07/02 10:07:13;;;;;;;2.73;2.53;;;;;;;17.14;100.00;96142.84;4953760;28;103266;-60
2023/07/02 10:09:46;;;;;;;2.43;2.23;;;;;;;17.21;100.00;96140.53;4949752;28;105235;-60
2023/07/02 10:12:18;;;;;;;2.47;2.27;;;;;;;17.24;100.00;96142.66;4950564;28;102860;-60
2023/07/02 10:14:47;;;;;;;2.90;2.30;;;;;;;17.53;100.00;96143.16;4950895;28;101849;-60
2023/07/02 10:17:25;;;;;;;2.50;2.30;;;;;;;17.76;100.00;96145.66;4950836;28;103193;-60
2023/07/02 10:19:53;;;;;;;2.20;2.10;;;;;;;17.78;100.00;96145.34;4950432;28;102605;-60
2023/07/02 10:22:20;;;;;;;2.63;2.43;;;;;;;17.75;100.00;96149.44;4949566;28;102057;-59
2023/07/02 10:24:59;;;;;;;2.73;2.53;;;;;;;17.63;100.00;96132.22;4950855;28;102640;-60
2023/07/02 10:27:37;;;;;;;2.40;2.20;;;;;;;17.37;100.00;96128.41;4948825;28;105688;-60
2023/07/02 10:30:07;;;;;;;2.13;2.03;;;;;;;17.50;100.00;96138.41;4954112;28;101827;-59
2023/07/02 10:32:35;;;;;;;2.00;1.90;;;;;;;17.72;100.00;96135.78;4949482;28;102546;-60
2023/07/02 10:35:04;;;;;;;2.50;2.30;;;;;;;17.96;100.00;96125.56;4950626;28;101885;-59
2023/07/02 10:37:37;;;;;;;2.43;2.23;;;;;;;18.18;100.00;96133.69;4949501;28;105063;-56
2023/07/02 10:40:09;;;;;;;2.40;2.20;;;;;;;18.24;100.00;96129.78;4948378;28;105802;-58
2023/07/02 10:42:45;;;;;;;2.40;2.20;;;;;;;18.01;100.00;96117.41;4950641;28;101742;-57
2023/07/02 10:45:14;;;;;;;2.20;2.00;;;;;;;18.27;100.00;96118.41;4949088;28;105506;-57
2023/07/02 10:47:42;;;;;;;2.00;1.90;;;;;;;18.56;100.00;96118.81;4948551;28;106030;-57
2023/07/02 10:50:16;;;;;;;2.00;1.90;;;;;;;18.48;100.00;96114.19;4950769;28;102154;-57
2023/07/02 10:52:44;;;;;;;2.00;1.90;;;;;;;18.32;100.00;96119.09;4952673;28;101757;-58
2023/07/02 10:55:13;;;;;;;2.70;2.50;;;;;;;18.13;100.00;96120.34;4950461;28;101811;-57
2023/07/02 10:57:40;;;;;;;3.33;2.90;;;;;;;18.16;100.00;96125.13;4949045;28;105116;-57
2023/07/02 11:00:08;;;;;;;2.70;2.50;;;;;;;18.40;100.00;96120.28;4948400;28;105368;-58
2023/07/02 11:02:37;;;;;;;3.23;2.60;;;;;;;18.81;100.00;96115.50;4950298;28;101827;-58
2023/07/02 11:05:06;;;;;;;2.87;2.67;;;;;;;19.01;100.00;96115.75;4950198;28;102685;-58
2023/07/02 11:07:33;;;;;;;2.83;2.50;;;;;;;18.98;100.00;96110.19;4949635;28;102518;-57
2023/07/02 11:09:59;;;;;;;2.40;2.30;;;;;;;19.37;100.00;96104.84;4950295;28;101698;-56
2023/07/02 11:12:29;;;;;;;2.40;2.30;;;;;;;19.73;100.00;96094.63;4948837;28;105294;-58
2023/07/02 11:14:56;;;;;;;2.50;2.30;;;;;;;20.34;100.00;96094.38;4952920;28;102539;-57
2023/07/02 11:17:26;;;;;;;2.83;2.50;;;;;;;20.82;100.00;96095.72;4950201;28;102568;-57
2023/07/02 11:19:55;;;;;;;2.70;2.50;;;;;;;21.26;100.00;96089.09;4948148;28;105459;-57